Time;durP1;ratioP1;P1;durP2;ratioP2;P2;SDS_P1;SDS_P2;PMS_P1;PMS_P2;Temp;Humidity;BMP_temperature;BMP_pressure;BME280_temperature;BME280_humidity;BME280_pressure;Samples;Min_cycle;Max_cycle;Signal;HPM_P1;HPM_P2
2021/05/24 00:02:17;;;;;;;10.10;4.80;;;;;;;12.38;69.39;100045.34;1725733;83;21095;-78
2021/05/24 00:04:44;;;;;;;11.08;5.03;;;;;;;12.39;69.58;100052.80;1719261;81;21057;-75
2021/05/24 00:07:13;;;;;;;12.35;4.85;;;;;;;12.38;69.60;100066.94;1677577;84;21069;-76
2021/05/24 00:09:41;;;;;;;10.23;5.08;;;;;;;12.39;69.54;100069.49;1671035;85;21226;-78
2021/05/24 00:12:09;;;;;;;7.67;4.62;;;;;;;12.45;69.25;100082.05;1669148;85;21084;-80
2021/05/24 00:14:38;;;;;;;11.18;5.72;;;;;;;12.48;69.72;100085.39;1608663;89;21106;-80
2021/05/24 00:17:07;;;;;;;;;;;;;;;12.54;69.75;100085.59;1675153;85;21715;-79
2021/05/24 00:19:34;;;;;;;11.43;4.95;;;;;;;12.59;69.18;100086.23;1677509;80;20250;-71
2021/05/24 00:22:02;;;;;;;11.43;5.03;;;;;;;12.63;70.36;100087.81;1697447;83;21100;-71
2021/05/24 00:24:29;;;;;;;7.08;4.28;;;;;;;12.68;70.50;100091.09;1720236;83;21116;-71
2021/05/24 00:26:56;;;;;;;14.43;6.05;;;;;;;12.73;70.35;100097.48;1716545;83;21122;-70
2021/05/24 00:29:23;;;;;;;13.32;6.35;;;;;;;12.78;70.88;100104.72;1714290;83;21628;-72
2021/05/24 00:31:51;;;;;;;21.75;7.78;;;;;;;12.85;69.08;100107.94;1714639;83;21090;-72
2021/05/24 00:34:19;;;;;;;18.67;7.00;;;;;;;12.93;69.13;100109.74;1714463;79;21798;-82
2021/05/24 00:36:47;;;;;;;19.95;8.45;;;;;;;13.02;67.99;100119.88;1684424;84;21649;-82
2021/05/24 00:39:13;;;;;;;15.13;7.45;;;;;;;13.11;65.61;100116.83;1669822;85;21293;-82
2021/05/24 00:41:43;;;;;;;18.40;6.87;;;;;;;13.21;62.80;100118.56;1669490;85;21719;-77
2021/05/24 00:44:10;;;;;;;17.32;6.47;;;;;;;13.33;63.85;100120.64;1688959;84;21111;-77
2021/05/24 00:46:38;;;;;;;15.13;6.08;;;;;;;13.41;61.46;100130.84;1697582;84;21133;-77
2021/05/24 00:49:05;;;;;;;13.00;6.55;;;;;;;13.49;60.62;100127.84;1697626;84;21076;-77
2021/05/24 00:51:32;;;;;;;12.40;4.83;;;;;;;13.57;61.68;100129.18;1674180;79;21101;-86
2021/05/24 00:54:00;;;;;;;12.53;5.20;;;;;;;13.64;59.69;100135.00;1665461;85;21084;-86
2021/05/24 00:56:27;;;;;;;13.15;5.35;;;;;;;13.74;60.41;100138.91;1678545;85;20997;-85
2021/05/24 00:58:57;;;;;;;11.63;5.37;;;;;;;13.81;60.55;100139.47;1689006;84;21580;-86
2021/05/24 01:01:28;;;;;;;;;;;;;;;13.85;62.61;100136.59;1664885;84;21080;-86
2021/05/24 01:03:57;;;;;;;7.37;4.25;;;;;;;13.87;63.03;100133.84;1649610;87;21113;-87
2021/05/24 01:06:24;;;;;;;6.75;4.55;;;;;;;13.88;61.99;100140.88;1667911;78;21352;-78
2021/05/24 01:08:51;;;;;;;9.40;4.72;;;;;;;13.91;63.43;100142.50;1671030;85;21081;-77
2021/05/24 01:11:22;;;;;;;11.30;5.47;;;;;;;13.94;65.05;100145.86;1680031;85;21034;-79
2021/05/24 01:13:49;;;;;;;17.32;6.28;;;;;;;13.92;67.49;100156.11;1660397;85;21129;-80
2021/05/24 01:16:16;;;;;;;15.55;6.67;;;;;;;13.81;68.46;100160.64;1660063;85;21105;-79
2021/05/24 01:21:12;;;;;;;13.80;6.72;;;;;;;13.64;70.82;100175.58;1731079;75;22741;-76
2021/05/24 01:23:41;;;;;;;;;;;;;;;13.49;70.63;100178.10;1676788;85;21639;-78
2021/05/24 01:26:08;;;;;;;12.82;6.15;;;;;;;13.40;70.75;100178.92;1674307;85;21041;-77
2021/05/24 01:28:35;;;;;;;13.35;7.37;;;;;;;13.37;71.46;100188.34;1673481;85;21043;-78
2021/05/24 01:31:03;;;;;;;14.93;6.42;;;;;;;13.37;72.15;100195.42;1673963;85;21110;-77
2021/05/24 01:33:36;;;;;;;12.18;6.45;;;;;;;13.35;72.33;100184.05;1673659;85;21058;-77
2021/05/24 01:36:10;;;;;;;13.90;6.83;;;;;;;13.33;73.33;100193.84;1690037;80;21083;-80
2021/05/24 01:38:39;;;;;;;16.85;5.35;;;;;;;13.32;73.97;100193.44;1703723;83;21660;-78
2021/05/24 01:41:09;;;;;;;13.58;6.40;;;;;;;13.27;74.69;100194.09;1688887;83;21597;-77
2021/05/24 01:43:37;;;;;;;17.07;6.35;;;;;;;13.23;75.52;100200.86;1711371;83;21059;-77
2021/05/24 01:46:05;;;;;;;8.53;5.25;;;;;;;13.19;76.55;100197.11;1692679;83;21084;-77
2021/05/24 01:48:33;;;;;;;7.58;4.85;;;;;;;13.15;77.50;100200.34;1681228;85;21063;-77
2021/05/24 01:51:00;;;;;;;13.55;6.45;;;;;;;13.09;78.04;100202.41;1681143;78;21105;-80
2021/05/24 01:53:27;;;;;;;12.30;6.65;;;;;;;13.05;78.56;100206.16;1689741;84;21143;-78
2021/05/24 01:55:55;;;;;;;10.60;5.70;;;;;;;13.01;79.00;100210.70;1676619;85;21086;-80
2021/05/24 01:58:23;;;;;;;17.25;6.10;;;;;;;12.96;79.37;100207.42;1677942;85;21115;-82
2021/05/24 02:00:51;;;;;;;10.85;5.95;;;;;;;12.90;79.94;100209.02;1678353;85;21127;-81
2021/05/24 02:03:19;;;;;;;10.78;5.40;;;;;;;12.86;80.71;100214.04;1676489;84;21088;-79
2021/05/24 02:05:46;;;;;;;16.20;5.95;;;;;;;12.83;81.39;100219.00;1670698;81;21000;-79
2021/05/24 02:08:13;;;;;;;9.60;5.22;;;;;;;12.78;81.62;100218.36;1645189;85;21162;-76
2021/05/24 02:10:40;;;;;;;11.03;5.47;;;;;;;12.73;82.13;100222.52;1640493;87;21668;-79
2021/05/24 02:13:07;;;;;;;9.33;5.42;;;;;;;12.69;82.50;100222.26;1690543;84;21140;-76
2021/05/24 02:15:37;;;;;;;8.85;5.20;;;;;;;12.62;82.91;100227.42;1691843;84;21057;-77
2021/05/24 02:18:06;;;;;;;15.05;5.37;;;;;;;12.57;83.28;100225.45;1689871;84;21121;-78
2021/05/24 02:20:34;;;;;;;10.13;5.30;;;;;;;12.52;83.56;100232.73;1693745;80;21666;-79
2021/05/24 02:23:03;;;;;;;11.05;5.12;;;;;;;12.45;83.75;100230.81;1712241;83;21116;-80
2021/05/24 02:25:30;;;;;;;10.63;5.55;;;;;;;12.42;84.02;100244.59;1696640;83;21097;-80
2021/05/24 02:27:57;;;;;;;13.15;6.03;;;;;;;12.37;84.02;100240.83;1731528;82;21108;-79
2021/05/24 02:30:27;;;;;;;7.80;4.92;;;;;;;12.33;84.24;100244.08;1737023;82;21522;-80
2021/05/24 02:32:55;;;;;;;9.95;5.00;;;;;;;12.31;84.74;100248.56;1735515;82;21031;-80
2021/05/24 02:35:23;;;;;;;10.65;5.17;;;;;;;12.27;85.16;100248.29;1723576;80;21062;-86
2021/05/24 02:37:52;;;;;;;7.87;4.95;;;;;;;12.25;85.50;100255.41;1755031;81;21031;-83
2021/05/24 02:40:20;;;;;;;7.33;5.00;;;;;;;12.21;86.35;100256.45;1754608;81;21526;-84
2021/05/24 02:42:47;;;;;;;11.93;5.30;;;;;;;12.17;86.88;100262.81;1756030;81;21619;-84
2021/05/24 02:45:16;;;;;;;11.68;4.90;;;;;;;12.15;87.50;100265.50;1755317;81;21059;-86
2021/05/24 02:47:45;;;;;;;16.40;5.13;;;;;;;12.17;87.85;100274.69;1754989;81;21495;-85
2021/05/24 02:50:18;;;;;;;12.63;5.58;;;;;;;12.16;88.25;100271.17;1750130;80;21405;-84
2021/05/24 02:52:45;;;;;;;11.60;5.50;;;;;;;12.14;88.53;100274.80;1729097;83;21100;-87
2021/05/24 02:55:12;;;;;;;12.07;5.70;;;;;;;12.09;88.68;100276.78;1729756;83;21135;-87
2021/05/24 02:57:39;;;;;;;10.72;4.35;;;;;;;12.05;88.52;100276.50;1728858;83;21386;-80
2021/05/24 03:00:09;;;;;;;12.93;5.12;;;;;;;12.04;88.57;100282.71;1727792;82;21176;-83
2021/05/24 03:02:45;;;;;;;8.90;4.67;;;;;;;12.06;88.00;100283.52;1726173;82;21049;-80
2021/05/24 03:05:07;;;;;;;9.55;5.20;;;;;;;12.06;87.20;100280.87;1722597;80;21824;-79
2021/05/24 03:07:34;;;;;;;12.55;5.62;;;;;;;12.07;87.09;100283.90;1684062;85;21068;-80
2021/05/24 03:10:02;;;;;;;10.05;5.25;;;;;;;12.08;87.14;100290.45;1683985;85;21121;-80
2021/05/24 03:12:29;;;;;;;10.78;5.70;;;;;;;12.06;87.32;100284.83;1683971;85;21653;-81
2021/05/24 03:14:57;;;;;;;10.23;5.45;;;;;;;12.07;87.75;100287.39;1683997;85;21142;-80
2021/05/24 03:17:24;;;;;;;8.60;5.28;;;;;;;12.08;87.98;100294.87;1675149;85;21603;-82
2021/05/24 03:19:59;;;;;;;9.60;5.72;;;;;;;12.07;88.64;100294.45;1673462;85;21741;-80
2021/05/24 03:22:27;;;;;;;11.83;5.70;;;;;;;12.06;89.17;100295.39;1732982;82;21623;-79
2021/05/24 03:24:55;;;;;;;10.85;5.60;;;;;;;12.06;89.86;100291.44;1736704;82;21667;-79
2021/05/24 03:27:22;;;;;;;14.25;6.00;;;;;;;12.06;90.03;100288.79;1736321;82;21057;-79
2021/05/24 03:29:48;;;;;;;12.20;4.47;;;;;;;12.05;90.04;100296.30;1737627;81;21044;-78
2021/05/24 03:32:15;;;;;;;9.85;5.03;;;;;;;12.04;90.20;100289.31;1739519;81;20924;-81
2021/05/24 03:34:42;;;;;;;10.23;5.00;;;;;;;12.06;90.67;100298.03;1739013;81;20991;-77
2021/05/24 03:37:11;;;;;;;10.45;5.40;;;;;;;12.08;90.83;100298.83;1657236;81;21104;-81
2021/05/24 03:39:37;;;;;;;10.18;5.72;;;;;;;12.09;90.65;100296.58;1646383;86;21092;-80
2021/05/24 03:42:06;;;;;;;7.15;4.62;;;;;;;12.10;90.48;100304.87;1667069;86;21099;-80
2021/05/24 03:44:35;;;;;;;8.80;4.33;;;;;;;12.08;90.48;100297.52;1663224;85;21155;-80
2021/05/24 03:47:03;;;;;;;11.73;4.78;;;;;;;12.05;90.64;100301.57;1665571;86;21131;-80
2021/05/24 03:49:30;;;;;;;13.88;5.58;;;;;;;12.06;91.19;100296.71;1665287;85;21673;-77
2021/05/24 03:51:57;;;;;;;9.18;4.60;;;;;;;12.03;91.68;100300.77;1677009;82;21109;-81
2021/05/24 03:54:25;;;;;;;8.10;4.70;;;;;;;11.99;91.97;100308.44;1688402;83;21476;-82
2021/05/24 03:56:52;;;;;;;11.18;5.12;;;;;;;11.95;92.00;100305.91;1681312;83;21087;-79
2021/05/24 03:59:19;;;;;;;12.05;4.75;;;;;;;11.93;92.16;100304.25;1645770;86;21095;-86
2021/05/24 04:01:49;;;;;;;11.78;5.35;;;;;;;11.90;92.32;100301.27;1673424;85;21117;-84
2021/05/24 04:04:17;;;;;;;9.58;5.72;;;;;;;11.88;92.48;100310.17;1640514;87;21113;-83
2021/05/24 04:06:52;;;;;;;12.35;5.65;;;;;;;11.86;92.66;100313.30;1656286;83;21633;-76
2021/05/24 04:09:17;;;;;;;11.25;5.33;;;;;;;11.83;92.72;100312.11;1669829;85;21140;-76
2021/05/24 04:11:44;;;;;;;9.90;4.90;;;;;;;11.83;92.86;100315.60;1730754;82;21072;-76
2021/05/24 04:14:12;;;;;;;8.00;5.20;;;;;;;11.83;93.13;100316.92;1741485;82;21112;-77
2021/05/24 04:16:38;;;;;;;8.88;5.95;;;;;;;11.81;93.16;100316.59;1714643;82;21041;-74
2021/05/24 04:19:10;;;;;;;12.00;5.80;;;;;;;11.77;93.29;100315.83;1706454;83;21103;-76
2021/05/24 04:21:35;;;;;;;10.90;6.15;;;;;;;11.73;93.50;100311.59;1692711;81;21179;-86
2021/05/24 04:24:06;;;;;;;9.88;5.30;;;;;;;11.72;93.75;100312.52;1713727;83;21043;-85
2021/05/24 04:26:33;;;;;;;9.50;5.72;;;;;;;11.73;93.89;100315.11;1745685;82;21106;-86
2021/05/24 04:29:00;;;;;;;10.28;5.37;;;;;;;11.73;94.23;100315.54;1725657;83;21106;-87
2021/05/24 04:31:26;;;;;;;10.25;5.60;;;;;;;11.72;94.40;100317.80;1724057;83;21091;-84
2021/05/24 04:33:54;;;;;;;9.83;5.97;;;;;;;11.71;94.51;100318.70;1723432;83;21637;-86
2021/05/24 04:36:21;;;;;;;9.50;5.55;;;;;;;11.69;94.46;100323.20;1706403;80;20953;-81
2021/05/24 04:38:49;;;;;;;11.40;5.75;;;;;;;11.72;94.53;100328.34;1721397;83;21143;-82
2021/05/24 04:41:16;;;;;;;9.38;4.87;;;;;;;11.74;94.50;100329.16;1721161;82;21105;-78
2021/05/24 04:43:43;;;;;;;9.03;5.12;;;;;;;11.72;94.29;100325.70;1725242;82;21068;-82
2021/05/24 04:46:10;;;;;;;12.03;5.55;;;;;;;11.72;94.23;100330.98;1721090;83;21065;-83
2021/05/24 04:48:37;;;;;;;12.03;5.83;;;;;;;11.74;94.18;100334.43;1720575;83;21073;-77
2021/05/24 04:51:04;;;;;;;9.68;5.47;;;;;;;11.74;94.31;100327.83;1732320;81;21071;-74
2021/05/24 04:53:32;;;;;;;7.20;5.28;;;;;;;11.73;94.25;100328.73;1610948;88;21099;-74
2021/05/24 04:56:00;;;;;;;10.75;5.95;;;;;;;11.76;94.50;100335.23;1599192;89;21526;-77
2021/05/24 04:58:27;;;;;;;11.80;7.05;;;;;;;11.76;94.45;100343.15;1643655;85;21882;-72
2021/05/24 05:00:54;;;;;;;10.70;6.28;;;;;;;11.79;94.61;100339.06;1651341;86;21096;-77
2021/05/24 05:03:20;;;;;;;10.23;6.08;;;;;;;11.81;94.61;100339.86;1652012;86;21095;-75
2021/05/24 05:05:54;;;;;;;8.35;5.42;;;;;;;11.85;94.72;100337.98;1652612;84;21575;-76
2021/05/24 05:08:21;;;;;;;10.90;5.05;;;;;;;11.86;94.64;100344.50;1713928;81;22031;-70
2021/05/24 05:10:49;;;;;;;6.55;4.80;;;;;;;11.87;94.78;100346.27;1733262;82;21080;-71
2021/05/24 05:13:16;;;;;;;7.90;5.05;;;;;;;11.89;94.68;100341.80;1720991;81;21801;-71
2021/05/24 05:15:44;;;;;;;7.55;5.17;;;;;;;11.92;94.66;100346.09;1742486;81;21042;-69
2021/05/24 05:18:12;;;;;;;11.20;5.22;;;;;;;11.91;94.71;100350.48;1735716;81;21109;-70
2021/05/24 05:21:03;;;;;;;7.40;4.55;;;;;;;11.93;94.79;100347.33;1739138;81;21096;-72
2021/05/24 05:23:32;;;;;;;8.08;5.00;;;;;;;11.95;94.90;100360.00;1661224;84;21078;-74
2021/05/24 05:25:59;;;;;;;6.75;4.00;;;;;;;11.94;94.75;100359.63;1666413;84;21115;-73
2021/05/24 05:28:26;;;;;;;13.28;4.55;;;;;;;11.98;94.65;100362.13;1662479;84;21103;-72
2021/05/24 05:30:53;;;;;;;8.15;4.58;;;;;;;11.99;94.52;100366.51;1671195;84;21080;-72
2021/05/24 05:33:20;;;;;;;12.25;5.25;;;;;;;12.00;94.64;100366.89;1665587;84;21449;-74
2021/05/24 05:35:48;;;;;;;12.50;4.50;;;;;;;12.03;94.72;100372.04;1668835;84;21124;-73
2021/05/24 05:38:22;;;;;;;9.65;4.58;;;;;;;12.07;94.47;100383.73;1677633;82;21105;-71
2021/05/24 05:40:51;;;;;;;10.65;5.50;;;;;;;12.11;94.11;100386.66;1693472;83;21114;-70
2021/05/24 05:43:19;;;;;;;10.13;4.97;;;;;;;12.13;93.81;100387.94;1694967;84;21566;-70
2021/05/24 05:45:47;;;;;;;9.58;4.83;;;;;;;12.14;93.73;100396.23;1690310;84;21555;-72
2021/05/24 05:48:15;;;;;;;6.78;3.62;;;;;;;12.12;93.60;100388.41;1685800;84;21111;-70
2021/05/24 05:50:42;;;;;;;4.95;3.22;;;;;;;12.15;93.67;100394.02;1686593;84;21590;-72
2021/05/24 05:53:09;;;;;;;7.05;3.40;;;;;;;12.19;93.79;100391.63;1641926;80;21163;-72
2021/05/24 05:55:37;;;;;;;6.75;2.65;;;;;;;12.21;93.70;100400.36;1585343;89;21116;-74
2021/05/24 05:58:04;;;;;;;6.67;2.98;;;;;;;12.20;92.56;100401.30;1620576;87;21146;-72
2021/05/24 06:00:30;;;;;;;4.80;2.80;;;;;;;12.17;92.47;100406.23;1631719;87;21108;-73
2021/05/24 06:02:57;;;;;;;6.85;2.50;;;;;;;12.15;91.30;100405.90;1631879;87;21095;-75
2021/05/24 06:05:24;;;;;;;3.95;2.40;;;;;;;12.15;91.44;100404.58;1602758;88;21837;-73
2021/05/24 06:07:51;;;;;;;3.70;2.60;;;;;;;12.16;91.32;100404.97;1725536;80;21044;-71
2021/05/24 06:10:19;;;;;;;4.78;1.95;;;;;;;12.18;90.52;100403.13;1768885;81;21080;-73
2021/05/24 06:12:49;;;;;;;3.12;2.25;;;;;;;12.20;90.16;100405.25;1753109;81;21123;-71
2021/05/24 06:15:17;;;;;;;4.87;2.10;;;;;;;12.16;87.48;100412.89;1768001;81;21072;-73
2021/05/24 06:17:46;;;;;;;2.62;1.80;;;;;;;12.13;87.15;100410.37;1768753;81;21594;-71
2021/05/24 06:20:14;;;;;;;4.53;1.92;;;;;;;12.17;88.32;100419.91;1768784;81;21075;-72
2021/05/24 06:22:41;;;;;;;3.27;1.60;;;;;;;12.21;87.85;100418.84;1704562;80;21783;-75
2021/05/24 06:25:10;;;;;;;4.33;1.90;;;;;;;12.27;88.51;100421.72;1680827;85;21543;-74
2021/05/24 06:27:38;;;;;;;3.47;2.12;;;;;;;12.32;88.22;100428.52;1669589;85;21123;-74
2021/05/24 06:30:08;;;;;;;3.58;2.10;;;;;;;12.33;88.01;100426.30;1658505;86;21107;-74
2021/05/24 06:32:35;;;;;;;3.75;2.30;;;;;;;12.33;88.54;100434.22;1657749;86;21083;-73
2021/05/24 06:35:02;;;;;;;3.52;1.57;;;;;;;12.38;89.02;100438.86;1627536;86;21111;-74
2021/05/24 06:37:29;;;;;;;6.47;2.47;;;;;;;12.42;88.49;100437.41;1681632;81;21085;-71
2021/05/24 06:39:56;;;;;;;3.20;1.70;;;;;;;12.42;87.63;100438.72;1726115;83;21093;-72
2021/05/24 06:42:24;;;;;;;2.42;1.30;;;;;;;12.43;86.84;100447.06;1725750;83;21531;-72
2021/05/24 06:44:52;;;;;;;2.00;1.22;;;;;;;12.43;86.52;100452.34;1725906;83;21050;-71
2021/05/24 06:47:19;;;;;;;3.08;1.20;;;;;;;12.45;86.58;100453.16;1724804;83;21077;-71
2021/05/24 06:49:47;;;;;;;2.33;1.20;;;;;;;12.49;86.89;100457.37;1725668;83;21610;-71
2021/05/24 06:52:14;;;;;;;3.75;1.40;;;;;;;12.52;85.98;100459.91;1710096;80;21134;-73
2021/05/24 06:54:41;;;;;;;4.28;1.30;;;;;;;12.55;85.59;100465.06;1663445;85;21713;-73
2021/05/24 06:57:08;;;;;;;1.75;1.12;;;;;;;12.56;86.13;100468.97;1711307;82;21702;-74
2021/05/24 06:59:35;;;;;;;4.90;1.40;;;;;;;12.53;85.41;100467.75;1715984;82;21632;-71
2021/05/24 07:02:02;;;;;;;5.75;1.70;;;;;;;12.53;85.88;100477.47;1722276;82;21092;-72
2021/05/24 07:04:29;;;;;;;2.47;1.70;;;;;;;12.52;86.76;100478.40;1706926;82;21097;-72
2021/05/24 07:06:58;;;;;;;2.70;1.57;;;;;;;12.49;87.43;100478.50;1694329;79;21131;-70
2021/05/24 07:09:26;;;;;;;3.02;1.75;;;;;;;12.48;88.23;100481.61;1682019;85;21079;-71
2021/05/24 07:11:53;;;;;;;3.02;1.70;;;;;;;12.50;88.78;100489.48;1691084;83;21067;-70
2021/05/24 07:14:21;;;;;;;3.08;1.85;;;;;;;12.49;89.14;100496.98;1682392;84;21095;-72
2021/05/24 07:16:50;;;;;;;4.17;2.85;;;;;;;12.48;89.72;100493.50;1682531;84;21115;-71
2021/05/24 07:19:19;;;;;;;6.47;2.15;;;;;;;12.50;89.69;100496.09;1663398;85;21143;-72
2021/05/24 07:21:47;;;;;;;5.95;3.27;;;;;;;12.54;89.87;100495.05;1678922;81;21591;-74
2021/05/24 07:24:14;;;;;;;7.65;3.95;;;;;;;12.58;89.75;100492.66;1670812;84;21192;-73
2021/05/24 07:26:41;;;;;;;7.20;3.67;;;;;;;12.61;90.08;100496.53;1659210;84;22011;-73
2021/05/24 07:29:08;;;;;;;1.72;1.37;;;;;;;12.67;90.16;100493.63;1651323;84;21111;-73
2021/05/24 07:31:35;;;;;;;4.62;2.33;;;;;;;12.71;89.83;100501.83;1664801;84;21071;-72
2021/05/24 07:34:01;;;;;;;4.42;1.85;;;;;;;12.68;89.66;100500.64;1665605;84;21610;-73
2021/05/24 07:36:35;;;;;;;4.30;2.00;;;;;;;12.67;90.16;100501.55;1656380;81;21574;-74
2021/05/24 07:39:04;;;;;;;3.70;1.95;;;;;;;12.66;90.27;100502.48;1757852;81;22300;-69
2021/05/24 07:41:31;;;;;;;5.05;1.70;;;;;;;12.67;90.03;100503.34;1762260;81;21332;-72
2021/05/24 07:43:58;;;;;;;3.60;1.80;;;;;;;12.67;90.86;100511.27;1752469;81;21079;-72
2021/05/24 07:46:25;;;;;;;2.83;1.52;;;;;;;12.70;91.58;100512.02;1760863;81;21115;-72
2021/05/24 07:48:52;;;;;;;4.78;1.80;;;;;;;12.75;91.92;100514.48;1762053;81;21209;-70
2021/05/24 07:51:20;;;;;;;3.05;1.80;;;;;;;12.78;91.72;100513.88;1759268;81;21119;-72
2021/05/24 07:53:48;;;;;;;3.45;1.90;;;;;;;12.83;91.58;100512.84;1654055;80;21120;-76
2021/05/24 07:56:15;;;;;;;4.30;2.00;;;;;;;12.87;91.30;100521.05;1643611;85;21077;-76
2021/05/24 07:58:42;;;;;;;3.08;1.37;;;;;;;12.87;90.27;100510.48;1643819;85;21159;-76
2021/05/24 08:01:10;;;;;;;5.33;1.52;;;;;;;12.90;90.71;100518.27;1651598;85;21129;-76
2021/05/24 08:03:38;;;;;;;5.53;1.62;;;;;;;12.94;91.14;100521.20;1647883;85;21627;-76
2021/05/24 08:06:14;;;;;;;4.58;2.47;;;;;;;12.97;90.52;100515.77;1646464;85;21066;-76
2021/05/24 08:08:43;;;;;;;3.85;2.15;;;;;;;12.98;90.45;100516.20;1643191;85;21170;-72
2021/05/24 08:11:13;;;;;;;3.35;2.17;;;;;;;12.97;89.39;100513.13;1637875;85;21111;-73
2021/05/24 08:13:39;;;;;;;4.40;1.80;;;;;;;12.99;89.80;100516.58;1632305;87;21490;-73
2021/05/24 08:16:08;;;;;;;2.25;1.40;;;;;;;13.08;90.04;100521.48;1623763;87;21163;-71
2021/05/24 08:18:36;;;;;;;3.12;1.52;;;;;;;13.14;89.70;100519.92;1613041;87;21159;-71
2021/05/24 08:21:05;;;;;;;2.17;1.40;;;;;;;13.19;90.34;100519.27;1616555;87;21093;-71
2021/05/24 08:23:32;;;;;;;3.45;1.72;;;;;;;13.21;89.22;100516.09;1652087;80;21626;-73
2021/05/24 08:26:00;;;;;;;5.10;1.62;;;;;;;13.32;90.23;100517.45;1666350;86;21829;-73
2021/05/24 08:28:28;;;;;;;4.97;1.30;;;;;;;13.43;89.04;100520.50;1664111;86;21578;-73
2021/05/24 08:30:55;;;;;;;1.95;1.40;;;;;;;13.48;88.89;100533.09;1662385;86;21099;-73
2021/05/24 08:33:23;;;;;;;2.47;1.52;;;;;;;13.55;89.80;100530.58;1658679;86;21115;-72
2021/05/24 08:35:50;;;;;;;2.72;1.57;;;;;;;13.68;89.39;100537.98;1597912;88;21135;-73
2021/05/24 08:38:17;;;;;;;4.15;1.35;;;;;;;13.85;90.31;100535.47;1657791;83;22236;-71
2021/05/24 08:40:45;;;;;;;2.95;1.50;;;;;;;13.99;88.82;100522.47;1664103;86;21069;-71
2021/05/24 08:43:15;;;;;;;3.08;2.08;;;;;;;14.20;87.61;100537.00;1631836;87;21100;-71
2021/05/24 08:45:43;;;;;;;4.72;2.35;;;;;;;14.36;86.07;100544.64;1664109;85;21096;-72
2021/05/24 08:48:12;;;;;;;10.03;1.32;;;;;;;14.57;87.09;100540.62;1631990;87;21140;-71
2021/05/24 08:50:40;;;;;;;1.90;1.50;;;;;;;14.84;86.14;100543.29;1664300;86;21903;-71
2021/05/24 08:53:10;;;;;;;2.60;1.37;;;;;;;15.12;85.71;100542.42;1677710;82;21159;-71
2021/05/24 08:55:37;;;;;;;4.05;2.08;;;;;;;15.40;84.75;100548.53;1706658;83;21722;-72
2021/05/24 08:58:09;;;;;;;3.75;1.60;;;;;;;15.72;84.22;100543.78;1712313;83;21190;-72
2021/05/24 09:00:37;;;;;;;3.00;1.20;;;;;;;15.98;81.36;100549.53;1697168;83;21108;-72
2021/05/24 09:03:04;;;;;;;3.92;1.30;;;;;;;16.07;77.33;100552.17;1713924;83;21844;-71
2021/05/24 09:05:32;;;;;;;1.85;1.12;;;;;;;16.18;78.48;100558.25;1719485;83;21421;-71
2021/05/24 09:08:02;;;;;;;4.12;1.10;;;;;;;16.32;77.73;100557.03;1688752;82;21544;-71
2021/05/24 09:10:43;;;;;;;3.67;1.45;;;;;;;16.47;76.10;100554.88;1638178;84;21104;-72
2021/05/24 09:13:17;;;;;;;3.40;1.22;;;;;;;16.69;75.46;100555.02;1649621;83;21824;-70
2021/05/24 09:15:47;;;;;;;2.70;1.17;;;;;;;16.88;73.91;100551.72;1671047;84;21087;-71
2021/05/24 09:18:18;;;;;;;2.37;1.32;;;;;;;17.09;74.70;100552.78;1651229;84;21583;-71
2021/05/24 09:20:50;;;;;;;3.05;1.15;;;;;;;17.32;73.71;100553.66;1672876;84;21657;-73
2021/05/24 09:23:32;;;;;;;2.50;1.80;;;;;;;17.61;71.61;100555.06;1682086;80;21144;-77
2021/05/24 09:26:13;;;;;;;3.47;1.62;;;;;;;17.88;72.14;100555.25;1684951;83;21073;-78
2021/05/24 09:28:46;;;;;;;2.58;1.02;;;;;;;18.37;71.32;100556.69;1687372;83;21703;-77
2021/05/24 09:31:25;;;;;;;2.22;1.30;;;;;;;18.78;67.48;100558.09;1694019;83;21671;-78
2021/05/24 09:33:57;;;;;;;2.20;0.98;;;;;;;18.97;66.94;100552.41;1684134;83;21045;-78
2021/05/24 09:36:25;;;;;;;1.55;1.00;;;;;;;19.07;64.38;100570.89;1683121;83;21132;-78
2021/05/24 09:39:09;;;;;;;2.83;1.47;;;;;;;19.04;63.68;100568.39;1724087;80;21140;-72
2021/05/24 09:41:45;;;;;;;2.17;1.55;;;;;;;19.16;64.29;100576.56;1741672;80;21641;-72
2021/05/24 09:44:26;;;;;;;2.42;1.35;;;;;;;19.43;63.43;100578.73;1728768;80;21115;-72
2021/05/24 09:46:54;;;;;;;3.12;1.80;;;;;;;19.66;62.88;100572.33;1737730;80;21104;-71
2021/05/24 09:49:25;;;;;;;2.02;1.10;;;;;;;19.96;60.54;100569.88;1718951;80;21060;-71
2021/05/24 09:51:52;;;;;;;3.25;1.20;;;;;;;20.08;57.77;100557.87;1723785;80;20999;-76
2021/05/24 09:54:22;;;;;;;2.95;1.10;;;;;;;19.93;57.85;100568.77;1650949;85;21977;-74
2021/05/24 09:56:49;;;;;;;2.27;1.20;;;;;;;19.88;59.27;100568.59;1653239;85;21133;-75
2021/05/24 09:59:25;;;;;;;2.80;1.50;;;;;;;20.07;57.69;100565.98;1658201;85;21126;-75
2021/05/24 10:01:57;;;;;;;7.60;1.45;;;;;;;20.12;56.91;100569.19;1659371;85;21153;-74
2021/05/24 10:04:32;;;;;;;2.45;0.90;;;;;;;20.38;56.85;100569.16;1653872;86;21650;-75
2021/05/24 10:07:02;;;;;;;3.52;1.30;;;;;;;20.67;55.22;100570.64;1669782;79;21086;-70
2021/05/24 10:09:32;;;;;;;2.62;1.07;;;;;;;20.78;52.84;100573.89;1704798;82;21121;-71
2021/05/24 10:12:02;;;;;;;2.17;1.07;;;;;;;20.62;51.62;100561.25;1737918;80;21138;-72
2021/05/24 10:14:29;;;;;;;1.82;1.20;;;;;;;20.66;52.40;100570.28;1731612;80;21114;-72
2021/05/24 10:17:01;;;;;;;3.70;0.88;;;;;;;20.87;52.43;100556.30;1693067;82;21090;-71
2021/05/24 10:19:26;;;;;;;6.47;1.23;;;;;;;21.02;49.81;100559.17;1675517;84;21114;-72
2021/05/24 10:21:53;;;;;;;3.35;1.00;;;;;;;21.18;48.83;100556.70;1664287;84;21106;-73
2021/05/24 10:24:24;;;;;;;3.27;0.88;;;;;;;21.28;48.97;100553.69;1651766;84;21130;-72
2021/05/24 10:26:54;;;;;;;2.67;1.10;;;;;;;21.54;48.29;100549.94;1712058;82;21070;-72
2021/05/24 10:29:21;;;;;;;2.75;0.85;;;;;;;21.71;47.29;100540.59;1707757;82;21637;-71
2021/05/24 10:31:49;;;;;;;1.92;0.80;;;;;;;21.88;46.38;100539.30;1705203;82;21177;-72
2021/05/24 10:34:20;;;;;;;5.78;1.17;;;;;;;22.05;44.39;100535.78;1701243;82;21011;-71
2021/05/24 10:37:14;;;;;;;1.60;0.90;;;;;;;21.99;44.39;100536.64;1704146;82;21087;-73
2021/05/24 10:40:01;;;;;;;7.40;1.25;;;;;;;21.84;46.85;100543.68;1702727;83;21122;-75
2021/05/24 10:42:43;;;;;;;2.27;0.80;;;;;;;22.01;42.98;100556.61;1679390;83;21852;-76
2021/05/24 10:45:26;;;;;;;4.97;0.75;;;;;;;21.76;43.50;100550.95;1692694;83;21170;-86
2021/05/24 10:48:00;;;;;;;1.60;0.72;;;;;;;21.72;43.61;100549.52;1695339;83;21059;-75
2021/05/24 10:50:32;;;;;;;3.15;0.60;;;;;;;21.95;43.25;100557.95;1683469;83;21095;-73
2021/05/24 10:53:08;;;;;;;3.77;0.80;;;;;;;22.10;42.99;100563.09;1673556;80;21072;-72
2021/05/24 10:55:44;;;;;;;2.45;0.70;;;;;;;22.29;42.02;100551.31;1676753;83;21072;-73
2021/05/24 10:58:14;;;;;;;5.28;0.72;;;;;;;22.50;40.97;100553.23;1685630;83;22836;-71
2021/05/24 11:00:56;;;;;;;3.75;0.82;;;;;;;22.52;42.16;100554.84;1637270;86;21147;-71
2021/05/24 11:03:23;;;;;;;1.72;0.60;;;;;;;22.43;42.32;100553.36;1630721;86;21120;-71
2021/05/24 11:06:11;;;;;;;1.37;0.78;;;;;;;22.71;40.77;100562.26;1643647;85;21096;-71
2021/05/24 11:08:43;;;;;;;1.10;0.70;;;;;;;22.80;40.53;100561.51;1691185;82;21121;-73
2021/05/24 11:11:29;;;;;;;2.90;0.80;;;;;;;22.83;39.06;100565.27;1721025;82;21648;-73
2021/05/24 11:14:06;;;;;;;9.18;1.65;;;;;;;22.70;40.59;100563.22;1721864;82;22271;-73
2021/05/24 11:16:36;;;;;;;2.77;0.80;;;;;;;22.48;40.40;100564.61;1655691;85;21623;-74
2021/05/24 11:19:14;;;;;;;10.98;1.20;;;;;;;22.09;40.44;100565.41;1713706;82;21641;-74
2021/05/24 11:21:53;;;;;;;3.92;0.78;;;;;;;21.93;40.90;100573.80;1709426;82;21106;-75
2021/05/24 11:27:10;;;;;;;5.75;0.90;;;;;;;21.79;41.05;100576.20;1692117;83;21111;-72
2021/05/24 11:29:39;;;;;;;1.62;0.62;;;;;;;21.66;40.84;100572.75;1699936;83;21065;-74
2021/05/24 11:32:27;;;;;;;3.00;0.62;;;;;;;21.48;42.05;100577.19;1702107;83;21664;-72
2021/05/24 11:34:55;;;;;;;1.50;0.70;;;;;;;21.46;40.82;100575.11;1695806;83;21600;-72
2021/05/24 11:44:52;;;;;;;2.98;0.90;;;;;;;21.67;42.10;100569.09;1715811;78;77064;-72
2021/05/24 11:47:23;;;;;;;1.55;0.90;;;;;;;21.70;39.96;100571.55;1720356;82;21152;-78